Time;durP1;ratioP1;P1;durP2;ratioP2;P2;SDS_P1;SDS_P2;PMS_P1;PMS_P2;Temp;Humidity;BMP_temperature;BMP_pressure;BME280_temperature;BME280_humidity;BME280_pressure;Samples;Min_cycle;Max_cycle;Signal;HPM_P1;HPM_P2
2021/09/26 00:00:28;;;;;;;15.52;13.07;;;;;;;17.49;100.00;99249.91;5074459;28;20189;-74
2021/09/26 00:02:55;;;;;;;21.95;15.57;;;;;;;17.38;100.00;99251.91;5074636;28;20540;-75
2021/09/26 00:05:23;;;;;;;17.38;13.77;;;;;;;17.36;100.00;99267.50;5074320;28;20198;-75
2021/09/26 00:07:50;;;;;;;16.15;14.18;;;;;;;17.43;100.00;99266.78;5074510;28;20564;-74
2021/09/26 00:10:16;;;;;;;14.15;12.68;;;;;;;17.47;100.00;99264.66;5074319;28;20182;-74
2021/09/26 00:12:44;;;;;;;14.75;13.15;;;;;;;17.43;100.00;99258.63;5073989;28;20206;-74
2021/09/26 00:15:15;;;;;;;16.77;13.93;;;;;;;17.30;100.00;99263.50;5074307;28;20188;-74
2021/09/26 00:17:41;;;;;;;15.85;14.02;;;;;;;17.27;100.00;99261.91;5074313;28;20604;-72
2021/09/26 00:20:10;;;;;;;15.73;13.68;;;;;;;17.24;100.00;99264.91;5073961;28;20210;-74
2021/09/26 00:22:38;;;;;;;16.17;14.00;;;;;;;17.21;100.00;99267.06;5073940;28;20182;-75
2021/09/26 00:25:07;;;;;;;16.38;13.27;;;;;;;17.30;100.00;99271.66;5073704;28;20203;-74
2021/09/26 00:27:34;;;;;;;20.05;14.63;;;;;;;17.31;100.00;99265.22;5074319;28;20676;-73
2021/09/26 00:30:01;;;;;;;19.35;15.40;;;;;;;17.18;100.00;99262.72;5073554;28;20279;-75
2021/09/26 00:32:27;;;;;;;21.48;14.73;;;;;;;17.06;100.00;99267.44;5074048;28;20613;-74
2021/09/26 00:34:54;;;;;;;17.20;14.95;;;;;;;17.01;100.00;99271.59;5073631;28;20292;-75
2021/09/26 00:37:21;;;;;;;16.88;14.93;;;;;;;16.96;100.00;99273.84;5073675;28;20234;-75
2021/09/26 00:39:49;;;;;;;14.32;12.75;;;;;;;16.84;100.00;99267.63;5073948;28;20203;-74
2021/09/26 00:42:15;;;;;;;18.70;13.93;;;;;;;16.93;100.00;99271.41;5073134;28;20189;-74
2021/09/26 00:44:42;;;;;;;14.23;12.73;;;;;;;16.98;100.00;99269.13;5073764;28;20668;-74
2021/09/26 00:47:09;;;;;;;16.77;13.55;;;;;;;17.07;100.00;99268.28;5073592;28;20207;-73
2021/09/26 00:49:36;;;;;;;16.20;12.63;;;;;;;16.93;100.00;99268.69;5073447;28;20207;-74
2021/09/26 00:52:02;;;;;;;15.05;13.18;;;;;;;16.86;100.00;99266.50;5073373;28;20721;-73
2021/09/26 00:54:29;;;;;;;15.77;13.45;;;;;;;16.80;100.00;99269.78;5073535;28;20209;-75
2021/09/26 00:56:58;;;;;;;15.38;12.70;;;;;;;16.92;100.00;99270.53;5073504;28;20559;-73
2021/09/26 00:59:24;;;;;;;15.73;14.00;;;;;;;16.83;100.00;99266.78;5072994;28;20204;-74
2021/09/26 01:01:51;;;;;;;13.90;12.40;;;;;;;16.64;100.00;99275.69;5073415;28;20529;-73
2021/09/26 01:04:19;;;;;;;16.20;12.98;;;;;;;16.63;100.00;99264.94;5072868;28;20196;-75
2021/09/26 01:06:55;;;;;;;14.75;13.13;;;;;;;16.55;100.00;99271.09;5073235;28;20289;-75
2021/09/26 01:09:26;;;;;;;13.93;12.43;;;;;;;16.49;100.00;99265.31;5073460;28;20227;-75
2021/09/26 01:12:01;;;;;;;13.93;12.43;;;;;;;16.50;100.00;99273.31;5073480;28;20543;-74
2021/09/26 01:14:37;;;;;;;14.63;12.88;;;;;;;16.51;100.00;99277.78;5072713;28;20204;-75
2021/09/26 01:17:11;;;;;;;18.95;12.10;;;;;;;16.47;100.00;99279.88;5072877;28;20192;-73
2021/09/26 01:20:02;;;;;;;16.02;12.30;;;;;;;16.42;100.00;99273.16;5072905;28;20545;-74
2021/09/26 01:22:40;;;;;;;13.80;12.40;;;;;;;16.50;100.00;99275.19;5073112;28;20189;-75
2021/09/26 01:25:26;;;;;;;15.18;11.68;;;;;;;16.47;100.00;99273.59;5072640;28;20285;-75
2021/09/26 01:28:20;;;;;;;14.02;12.35;;;;;;;16.50;100.00;99283.34;5053046;28;20185;-75
2021/09/26 01:30:52;;;;;;;14.00;12.55;;;;;;;16.47;100.00;99274.44;5052830;28;20235;-75
2021/09/26 01:33:24;;;;;;;18.00;13.13;;;;;;;16.38;100.00;99283.41;5053054;28;20185;-75
2021/09/26 01:35:58;;;;;;;14.20;11.80;;;;;;;16.45;100.00;99279.16;5052494;28;20239;-75
2021/09/26 01:38:31;;;;;;;16.95;12.40;;;;;;;16.29;100.00;99286.06;5052700;28;20178;-75
2021/09/26 01:41:01;;;;;;;13.18;11.88;;;;;;;16.22;100.00;99289.31;5067238;28;20280;-75
2021/09/26 01:43:36;;;;;;;14.90;12.77;;;;;;;16.23;100.00;99295.59;5072340;28;20201;-75
2021/09/26 01:46:07;;;;;;;13.40;12.10;;;;;;;16.09;100.00;99302.22;5072889;28;20551;-73
2021/09/26 01:48:41;;;;;;;13.00;11.70;;;;;;;15.97;100.00;99297.88;5072827;28;20195;-74
2021/09/26 01:51:08;;;;;;;13.55;11.90;;;;;;;15.96;100.00;99307.84;5072770;28;20292;-73
2021/09/26 01:53:42;;;;;;;13.93;12.45;;;;;;;16.00;100.00;99306.59;5071676;28;20312;-73
2021/09/26 01:56:10;;;;;;;14.13;12.52;;;;;;;15.97;100.00;99301.44;5072213;28;20187;-73
2021/09/26 01:58:37;;;;;;;16.73;13.40;;;;;;;15.95;100.00;99297.97;5072432;28;20208;-74
2021/09/26 02:01:07;;;;;;;14.63;11.80;;;;;;;15.86;100.00;99293.34;5072610;28;20988;-74
2021/09/26 02:03:35;;;;;;;14.98;13.02;;;;;;;15.90;100.00;99302.09;5072108;28;20200;-73
2021/09/26 02:06:02;;;;;;;13.27;11.80;;;;;;;15.93;100.00;99302.69;5072451;28;20185;-73
2021/09/26 02:08:29;;;;;;;14.55;12.85;;;;;;;15.92;100.00;99306.41;5072032;28;20199;-74
2021/09/26 02:10:56;;;;;;;17.25;13.02;;;;;;;16.07;100.00;99306.94;5072167;28;20188;-75
2021/09/26 02:13:25;;;;;;;13.45;12.05;;;;;;;16.12;100.00;99296.53;5072269;28;20534;-74
2021/09/26 02:15:54;;;;;;;14.05;11.93;;;;;;;16.07;100.00;99295.22;5072293;28;20542;-75
2021/09/26 02:18:22;;;;;;;13.70;12.20;;;;;;;16.01;100.00;99294.75;5072539;28;20187;-75
2021/09/26 02:20:49;;;;;;;13.00;11.70;;;;;;;15.92;100.00;99305.50;5072364;28;20203;-75
2021/09/26 02:23:17;;;;;;;13.13;11.82;;;;;;;15.87;100.00;99299.63;5072428;28;20185;-75
2021/09/26 02:25:43;;;;;;;15.10;11.73;;;;;;;15.79;100.00;99298.41;5072365;28;20263;-74
2021/09/26 02:28:11;;;;;;;14.10;12.55;;;;;;;15.69;100.00;99296.56;5071953;28;20712;-74
2021/09/26 02:30:38;;;;;;;17.90;13.18;;;;;;;15.63;100.00;99287.97;5072365;28;20193;-73
2021/09/26 02:33:05;;;;;;;13.80;12.35;;;;;;;15.62;100.00;99288.09;5072292;28;20201;-72
2021/09/26 02:35:33;;;;;;;14.35;12.88;;;;;;;15.57;100.00;99293.91;5071508;28;20263;-74
2021/09/26 02:38:00;;;;;;;14.05;12.50;;;;;;;15.55;100.00;99295.88;5071798;28;20185;-74
2021/09/26 02:40:26;;;;;;;14.77;12.68;;;;;;;15.52;100.00;99298.84;5071981;28;20276;-73
2021/09/26 02:43:04;;;;;;;14.57;12.80;;;;;;;15.52;100.00;99293.44;5071638;28;20274;-73
2021/09/26 02:45:35;;;;;;;13.77;12.25;;;;;;;15.51;100.00;99294.44;5072066;28;20180;-74
2021/09/26 02:48:06;;;;;;;13.55;12.02;;;;;;;15.41;100.00;99282.59;5072129;28;20192;-73
2021/09/26 02:50:35;;;;;;;16.75;13.10;;;;;;;15.35;100.00;99285.81;5072200;28;20272;-73
2021/09/26 02:53:04;;;;;;;13.93;12.45;;;;;;;15.31;100.00;99287.94;5072368;28;20185;-73
2021/09/26 02:55:32;;;;;;;17.27;13.27;;;;;;;15.32;100.00;99286.94;5072014;28;20215;-75
2021/09/26 02:57:59;;;;;;;14.63;12.43;;;;;;;15.43;100.00;99275.22;5071456;28;20205;-73
2021/09/26 03:00:32;;;;;;;13.75;12.35;;;;;;;15.36;100.00;99269.44;5071939;28;20181;-74
2021/09/26 03:03:09;;;;;;;12.85;11.52;;;;;;;15.30;100.00;99282.63;5072070;28;20207;-74
2021/09/26 03:05:38;;;;;;;15.90;12.40;;;;;;;15.17;100.00;99278.25;5074612;28;20184;-74
2021/09/26 03:08:06;;;;;;;13.77;12.05;;;;;;;15.16;100.00;99278.34;5075786;28;20197;-74
2021/09/26 03:10:32;;;;;;;15.00;11.55;;;;;;;15.17;100.00;99277.34;5075433;28;20610;-74
2021/09/26 03:12:59;;;;;;;12.10;10.45;;;;;;;15.23;100.00;99285.00;5075292;28;20229;-75
2021/09/26 03:15:26;;;;;;;13.98;12.32;;;;;;;15.37;100.00;99278.44;5075513;28;20565;-74
2021/09/26 03:17:52;;;;;;;12.55;11.25;;;;;;;15.41;100.00;99279.91;5075207;28;20181;-75
2021/09/26 03:20:19;;;;;;;13.25;11.88;;;;;;;15.42;100.00;99289.75;5075540;28;20616;-75
2021/09/26 03:22:47;;;;;;;13.60;12.13;;;;;;;15.43;100.00;99280.63;5075353;28;20204;-73
2021/09/26 03:25:14;;;;;;;12.85;11.45;;;;;;;15.37;100.00;99284.69;5075288;28;20184;-75
2021/09/26 03:27:42;;;;;;;14.65;12.45;;;;;;;15.32;100.00;99281.53;5074535;28;20279;-74
2021/09/26 03:30:10;;;;;;;13.05;11.63;;;;;;;15.28;100.00;99285.47;5075285;28;20200;-73
2021/09/26 03:32:36;;;;;;;15.82;11.70;;;;;;;15.23;100.00;99282.28;5074811;28;20185;-74
2021/09/26 03:35:04;;;;;;;16.02;12.90;;;;;;;15.14;100.00;99283.91;5075014;28;20683;-74
2021/09/26 03:37:31;;;;;;;13.77;12.20;;;;;;;15.04;100.00;99282.06;5074880;28;20326;-74
2021/09/26 03:39:59;;;;;;;12.25;10.95;;;;;;;15.13;100.00;99279.47;5074622;28;20208;-74
2021/09/26 03:42:26;;;;;;;13.00;11.23;;;;;;;15.19;100.00;99284.38;5075011;28;20187;-73
2021/09/26 03:44:52;;;;;;;16.08;12.15;;;;;;;15.07;100.00;99287.25;5074701;28;20192;-74
2021/09/26 03:47:19;;;;;;;13.98;12.45;;;;;;;15.01;100.00;99292.19;5074927;28;20187;-73
2021/09/26 03:49:45;;;;;;;13.00;11.70;;;;;;;15.04;100.00;99288.38;5074624;28;20610;-74
2021/09/26 03:52:13;;;;;;;13.85;11.70;;;;;;;14.95;100.00;99286.41;5074351;28;20274;-74
2021/09/26 03:54:40;;;;;;;14.60;12.82;;;;;;;14.89;100.00;99279.63;5074594;28;20558;-72
2021/09/26 03:57:08;;;;;;;13.25;11.85;;;;;;;14.84;100.00;99281.84;5074831;28;20200;-75
2021/09/26 03:59:35;;;;;;;16.23;12.00;;;;;;;14.99;100.00;99286.03;5074653;28;20543;-74
2021/09/26 04:02:03;;;;;;;13.13;11.73;;;;;;;15.08;100.00;99281.72;5074639;28;20185;-74
2021/09/26 04:04:30;;;;;;;16.23;12.15;;;;;;;14.92;100.00;99273.09;5074603;28;20193;-75
2021/09/26 04:06:56;;;;;;;13.45;11.95;;;;;;;14.79;100.00;99270.53;5074579;28;20189;-74
2021/09/26 04:09:23;;;;;;;15.90;12.02;;;;;;;14.80;100.00;99277.66;5074405;28;20201;-75
2021/09/26 04:11:50;;;;;;;17.45;12.50;;;;;;;14.77;100.00;99265.22;5074465;28;20548;-74
2021/09/26 04:14:18;;;;;;;14.38;11.57;;;;;;;14.85;100.00;99261.03;5074326;28;20188;-73
2021/09/26 04:16:44;;;;;;;14.15;11.88;;;;;;;14.92;100.00;99259.53;5073001;28;20203;-73
2021/09/26 04:19:11;;;;;;;12.90;11.50;;;;;;;14.78;100.00;99264.22;5074016;28;20185;-74
2021/09/26 04:21:38;;;;;;;11.65;10.45;;;;;;;14.86;100.00;99260.06;5074218;28;20189;-74
2021/09/26 04:24:05;;;;;;;13.15;11.73;;;;;;;14.76;100.00;99266.19;5074060;28;20203;-75
2021/09/26 04:26:31;;;;;;;15.50;11.93;;;;;;;14.70;100.00;99255.88;5073183;28;20201;-75
2021/09/26 04:28:58;;;;;;;13.73;11.35;;;;;;;14.73;100.00;99255.59;5074018;28;20211;-74
2021/09/26 04:31:26;;;;;;;12.15;10.90;;;;;;;14.66;100.00;99253.53;5073747;28;20206;-74
2021/09/26 04:33:52;;;;;;;14.70;11.52;;;;;;;14.60;100.00;99247.59;5072671;28;20288;-75
2021/09/26 04:36:19;;;;;;;15.10;12.73;;;;;;;14.54;100.00;99258.03;5073486;28;20234;-73
2021/09/26 04:38:45;;;;;;;12.93;10.82;;;;;;;14.57;100.00;99258.69;5074023;28;20186;-74
2021/09/26 04:41:13;;;;;;;13.68;11.63;;;;;;;14.65;100.00;99249.94;5073769;28;20184;-74
2021/09/26 04:43:39;;;;;;;14.70;11.98;;;;;;;14.67;100.00;99258.81;5073742;28;20200;-74
2021/09/26 04:46:06;;;;;;;13.00;11.57;;;;;;;14.59;100.00;99262.13;5073428;28;20199;-74
2021/09/26 04:48:34;;;;;;;13.13;11.63;;;;;;;14.53;100.00;99254.47;5073785;28;20207;-74
2021/09/26 04:51:00;;;;;;;17.05;12.38;;;;;;;14.48;100.00;99261.25;5073635;28;20291;-74
2021/09/26 04:53:27;;;;;;;14.52;11.27;;;;;;;14.61;100.00;99267.44;5073577;28;20536;-74
2021/09/26 04:55:54;;;;;;;14.27;11.90;;;;;;;14.66;100.00;99281.47;5073253;28;20745;-74
2021/09/26 04:58:20;;;;;;;14.02;11.27;;;;;;;14.69;100.00;99297.47;5073248;28;20197;-75
2021/09/26 05:00:47;;;;;;;12.20;10.90;;;;;;;14.71;100.00;99317.19;5073937;28;20288;-74
2021/09/26 05:03:14;;;;;;;13.68;11.10;;;;;;;14.78;100.00;99313.00;5073155;28;20201;-74
2021/09/26 05:05:42;;;;;;;14.45;12.48;;;;;;;14.78;100.00;99309.44;5073280;28;20275;-74
2021/09/26 05:08:09;;;;;;;12.30;11.10;;;;;;;14.59;100.00;99304.63;5073054;28;20558;-74
2021/09/26 05:10:35;;;;;;;12.15;10.85;;;;;;;14.49;100.00;99311.72;5073471;28;20185;-75
2021/09/26 05:13:02;;;;;;;13.30;11.90;;;;;;;14.53;100.00;99318.63;5073156;28;20190;-75
2021/09/26 05:15:29;;;;;;;17.17;13.82;;;;;;;14.60;100.00;99319.88;5062276;28;20235;-74
2021/09/26 05:17:56;;;;;;;19.10;13.43;;;;;;;14.50;100.00;99327.00;5066475;28;20203;-74
2021/09/26 05:20:23;;;;;;;14.23;11.57;;;;;;;14.51;100.00;99318.72;5065643;28;20257;-74
2021/09/26 05:22:52;;;;;;;14.45;12.27;;;;;;;14.53;100.00;99316.78;5065815;28;20226;-73
2021/09/26 05:25:19;;;;;;;13.20;11.32;;;;;;;14.61;100.00;99308.09;5066966;28;20197;-74
2021/09/26 05:27:46;;;;;;;14.65;13.15;;;;;;;14.56;100.00;99315.69;5068786;28;20193;-74
2021/09/26 05:30:13;;;;;;;16.10;11.05;;;;;;;14.62;100.00;99307.09;5069017;28;20204;-73
2021/09/26 05:32:40;;;;;;;13.55;10.90;;;;;;;14.76;100.00;99305.97;5067585;28;20294;-72
2021/09/26 05:35:08;;;;;;;13.85;11.65;;;;;;;14.73;100.00;99320.66;5068660;28;20326;-75
2021/09/26 05:37:35;;;;;;;13.50;11.00;;;;;;;14.72;100.00;99321.66;5062581;28;20232;-74
2021/09/26 05:40:04;;;;;;;14.20;11.05;;;;;;;14.87;100.00;99324.09;5071898;28;20629;-74
2021/09/26 05:42:30;;;;;;;13.60;12.00;;;;;;;14.89;100.00;99330.25;5071761;28;20203;-73
2021/09/26 05:44:57;;;;;;;13.20;11.38;;;;;;;14.79;100.00;99331.00;5072049;28;20194;-75
2021/09/26 05:47:24;;;;;;;13.90;11.43;;;;;;;14.67;100.00;99336.53;5072353;28;20184;-75
2021/09/26 05:49:50;;;;;;;13.35;11.93;;;;;;;14.63;100.00;99332.31;5072168;28;20200;-75
2021/09/26 05:52:17;;;;;;;12.45;10.95;;;;;;;14.63;100.00;99349.47;5072158;28;20215;-75
2021/09/26 05:54:44;;;;;;;12.55;10.95;;;;;;;14.84;100.00;99349.59;5072142;28;20181;-75
2021/09/26 05:57:12;;;;;;;17.85;11.63;;;;;;;14.85;100.00;99350.47;5071731;28;20297;-75
2021/09/26 05:59:39;;;;;;;12.75;10.90;;;;;;;14.76;100.00;99339.34;5072327;28;20204;-75
2021/09/26 06:02:07;;;;;;;13.02;11.15;;;;;;;14.65;100.00;99333.94;5072252;28;20214;-75
2021/09/26 06:04:33;;;;;;;12.80;11.50;;;;;;;14.46;100.00;99333.63;5072215;28;20199;-74
2021/09/26 06:07:01;;;;;;;15.73;11.38;;;;;;;14.42;100.00;99329.44;5072070;28;20186;-74
2021/09/26 06:09:28;;;;;;;13.30;11.90;;;;;;;14.45;100.00;99327.38;5072311;28;20633;-74
2021/09/26 06:11:55;;;;;;;12.45;11.23;;;;;;;14.47;100.00;99329.94;5071852;28;20209;-74
2021/09/26 06:14:23;;;;;;;15.48;11.38;;;;;;;14.46;100.00;99333.63;5072168;28;20191;-74
2021/09/26 06:16:50;;;;;;;11.98;10.77;;;;;;;14.68;100.00;99333.72;5071685;28;20219;-74
2021/09/26 06:19:16;;;;;;;14.80;11.93;;;;;;;14.77;100.00;99334.81;5072183;28;20650;-74
2021/09/26 06:21:43;;;;;;;13.32;11.00;;;;;;;14.87;100.00;99332.22;5072209;28;20195;-73
2021/09/26 06:24:11;;;;;;;13.43;10.75;;;;;;;14.75;100.00;99324.09;5072117;28;20188;-73
2021/09/26 06:26:37;;;;;;;12.65;10.60;;;;;;;14.77;100.00;99326.69;5071850;28;20196;-74
2021/09/26 06:29:04;;;;;;;13.10;10.25;;;;;;;14.84;100.00;99327.06;5071934;28;20181;-74
2021/09/26 06:31:33;;;;;;;16.77;11.30;;;;;;;14.90;100.00;99330.16;5071406;28;20189;-75
2021/09/26 06:33:59;;;;;;;13.63;10.88;;;;;;;14.95;100.00;99327.94;5071721;28;20185;-74
2021/09/26 06:36:26;;;;;;;11.52;10.50;;;;;;;14.98;100.00;99324.09;5071244;28;20716;-74
2021/09/26 06:38:53;;;;;;;12.45;11.15;;;;;;;15.15;100.00;99330.84;5072096;28;20189;-74
2021/09/26 06:41:20;;;;;;;16.30;10.95;;;;;;;15.43;100.00;99337.59;5075824;28;20276;-74
2021/09/26 06:43:46;;;;;;;11.75;10.30;;;;;;;15.71;100.00;99348.91;5075525;28;20291;-75
2021/09/26 06:46:13;;;;;;;11.25;9.65;;;;;;;15.97;100.00;99353.03;5075705;28;20283;-73
2021/09/26 06:48:41;;;;;;;11.88;10.57;;;;;;;16.27;100.00;99373.13;5075579;28;20678;-74
2021/09/26 06:51:08;;;;;;;13.38;10.27;;;;;;;16.54;97.95;99367.19;5075704;28;20533;-73
2021/09/26 06:53:34;;;;;;;15.05;10.45;;;;;;;16.59;97.54;99374.94;5075261;28;20196;-73
2021/09/26 06:56:01;;;;;;;12.02;10.60;;;;;;;16.46;97.21;99375.13;5075215;28;20224;-73
2021/09/26 06:58:28;;;;;;;11.93;10.70;;;;;;;16.35;98.55;99378.78;5075229;28;20232;-75
2021/09/26 07:00:54;;;;;;;11.63;10.43;;;;;;;16.31;99.22;99366.44;5075367;28;20673;-75
2021/09/26 07:03:21;;;;;;;13.43;11.00;;;;;;;16.38;99.44;99370.34;5075394;28;20275;-74
2021/09/26 07:05:49;;;;;;;13.38;10.40;;;;;;;16.40;98.91;99367.53;5075285;28;20621;-75
2021/09/26 07:08:15;;;;;;;16.00;10.27;;;;;;;16.42;99.12;99363.66;5075372;28;20561;-74
2021/09/26 07:10:42;;;;;;;11.15;9.77;;;;;;;16.73;97.31;99358.28;5075357;28;20197;-75
2021/09/26 07:13:09;;;;;;;13.63;11.02;;;;;;;16.79;96.43;99357.78;5075177;28;20210;-75
2021/09/26 07:15:35;;;;;;;10.93;9.93;;;;;;;16.63;97.60;99351.94;5074922;28;20226;-75
2021/09/26 07:18:02;;;;;;;10.30;9.27;;;;;;;16.58;100.00;99348.75;5074895;28;20216;-75
2021/09/26 07:20:29;;;;;;;10.88;9.68;;;;;;;16.42;100.00;99338.38;5074598;28;20192;-75
2021/09/26 07:22:59;;;;;;;12.32;11.05;;;;;;;16.50;100.00;99334.97;5074850;28;20670;-75
2021/09/26 07:25:26;;;;;;;18.17;14.15;;;;;;;16.82;100.00;99330.34;5074764;28;20259;-74
2021/09/26 07:27:53;;;;;;;11.07;9.95;;;;;;;16.79;100.00;99330.59;5074906;28;20605;-73
2021/09/26 07:30:19;;;;;;;10.88;9.63;;;;;;;16.62;100.00;99339.31;5074626;28;20201;-74
2021/09/26 07:32:46;;;;;;;13.63;11.32;;;;;;;16.85;100.00;99340.94;5074470;28;20193;-73
2021/09/26 07:35:14;;;;;;;11.13;9.70;;;;;;;17.17;100.00;99349.94;5074367;28;20202;-74
2021/09/26 07:37:40;;;;;;;11.93;10.35;;;;;;;17.54;100.00;99357.50;5074556;28;20199;-74
2021/09/26 07:40:10;;;;;;;12.68;10.40;;;;;;;17.77;97.54;99369.84;5074688;28;20304;-74
2021/09/26 07:42:37;;;;;;;10.45;9.25;;;;;;;17.95;96.56;99369.22;5074502;28;20203;-74
2021/09/26 07:45:06;;;;;;;15.57;12.05;;;;;;;18.12;95.31;99365.78;5074509;28;20184;-74
2021/09/26 07:47:34;;;;;;;14.82;12.20;;;;;;;18.27;94.41;99371.66;5074403;28;20184;-75
2021/09/26 07:50:02;;;;;;;16.45;11.00;;;;;;;18.33;92.99;99373.81;5074441;28;20219;-74
2021/09/26 07:52:29;;;;;;;15.07;11.18;;;;;;;18.52;91.66;99367.50;5073582;28;20187;-73
2021/09/26 07:54:56;;;;;;;12.40;10.65;;;;;;;18.74;91.07;99358.94;5074367;28;20205;-75
2021/09/26 07:57:24;;;;;;;13.32;10.88;;;;;;;19.05;88.49;99366.09;5074257;28;20284;-73
2021/09/26 07:59:51;;;;;;;14.35;10.80;;;;;;;19.12;88.16;99370.78;5074277;28;20207;-73
2021/09/26 08:02:18;;;;;;;11.65;10.45;;;;;;;19.34;87.47;99377.75;5073666;28;20200;-75
2021/09/26 08:04:45;;;;;;;12.00;10.73;;;;;;;19.67;85.10;99375.44;5074279;28;20192;-75
2021/09/26 08:07:12;;;;;;;11.73;9.65;;;;;;;19.92;83.31;99379.34;5073524;28;20529;-75
2021/09/26 08:09:39;;;;;;;12.40;11.10;;;;;;;20.30;80.97;99384.63;5071469;28;20272;-74
2021/09/26 08:12:06;;;;;;;11.57;10.07;;;;;;;20.42;80.49;99395.19;5068389;28;20204;-73
2021/09/26 08:14:35;;;;;;;11.37;10.17;;;;;;;20.64;78.93;99392.13;5069416;28;20430;-74
2021/09/26 08:17:01;;;;;;;13.90;11.10;;;;;;;20.77;77.98;99393.44;5069580;28;20499;-74
2021/09/26 08:19:28;;;;;;;11.30;9.50;;;;;;;20.84;77.83;99396.41;5069782;28;20442;-74
2021/09/26 08:21:55;;;;;;;13.40;10.40;;;;;;;20.56;78.78;99403.84;5069126;28;20786;-73
2021/09/26 08:24:23;;;;;;;11.17;9.57;;;;;;;20.63;78.34;99390.44;5069099;28;20535;-73
2021/09/26 08:26:49;;;;;;;12.20;10.60;;;;;;;20.64;78.52;99394.88;5068807;28;20433;-73
2021/09/26 08:29:16;;;;;;;13.47;10.30;;;;;;;20.68;78.52;99404.50;5068489;28;20462;-73
2021/09/26 08:31:44;;;;;;;12.57;9.93;;;;;;;20.54;79.56;99416.81;5067806;28;20442;-73
2021/09/26 08:34:11;;;;;;;11.23;9.97;;;;;;;20.37;80.90;99432.22;5067086;28;20435;-73
2021/09/26 08:36:37;;;;;;;12.17;9.87;;;;;;;20.09;82.05;99443.19;5068923;28;20486;-74
2021/09/26 08:39:04;;;;;;;11.50;9.70;;;;;;;19.91;84.15;99439.59;5069388;28;20990;-74
2021/09/26 08:41:32;;;;;;;14.17;11.63;;;;;;;19.75;85.81;99451.19;5067614;28;20439;-74
2021/09/26 08:43:59;;;;;;;15.70;11.27;;;;;;;19.68;86.95;99450.88;5068281;28;21040;-73
2021/09/26 08:46:26;;;;;;;15.32;11.52;;;;;;;19.37;89.82;99451.16;5066242;28;20442;-74
2021/09/26 08:48:55;;;;;;;11.50;10.30;;;;;;;19.09;94.23;99455.69;5066807;28;20307;-74
2021/09/26 08:51:22;;;;;;;13.13;11.82;;;;;;;18.87;99.00;99453.31;5067114;28;21558;-75
2021/09/26 08:53:48;;;;;;;14.52;11.35;;;;;;;19.03;99.34;99455.41;5069552;28;20245;-74
2021/09/26 08:56:17;;;;;;;14.40;11.75;;;;;;;18.61;100.00;99440.25;5071979;28;20208;-75
2021/09/26 08:58:44;;;;;;;13.40;12.10;;;;;;;18.23;100.00;99441.94;5072488;28;20191;-74
2021/09/26 09:01:10;;;;;;;20.75;14.00;;;;;;;18.25;100.00;99450.00;5071703;28;20684;-75
2021/09/26 09:03:37;;;;;;;16.23;14.52;;;;;;;18.69;100.00;99450.41;5071875;28;20196;-74
2021/09/26 09:06:05;;;;;;;17.67;14.50;;;;;;;18.63;100.00;99448.25;5072061;28;20192;-75
2021/09/26 09:08:32;;;;;;;16.75;14.82;;;;;;;18.64;100.00;99450.84;5072374;28;20622;-75
2021/09/26 09:11:01;;;;;;;16.40;14.75;;;;;;;18.67;100.00;99452.41;5072081;28;20189;-74
2021/09/26 09:13:33;;;;;;;22.30;14.73;;;;;;;18.62;100.00;99450.13;5072158;28;20190;-74
2021/09/26 09:16:01;;;;;;;16.23;14.48;;;;;;;18.54;100.00;99455.44;5071831;28;20215;-76
2021/09/26 09:18:37;;;;;;;16.27;14.25;;;;;;;18.60;100.00;99452.13;5071912;28;20184;-74
2021/09/26 09:21:15;;;;;;;15.75;14.07;;;;;;;18.61;100.00;99459.31;5072499;28;20184;-73
2021/09/26 09:23:41;;;;;;;26.67;23.90;;;;;;;18.73;100.00;99462.75;5065383;28;20215;-73
2021/09/26 09:26:08;;;;;;;16.17;14.60;;;;;;;18.86;100.00;99476.09;5071521;28;20279;-73
2021/09/26 09:28:39;;;;;;;15.23;13.73;;;;;;;18.89;100.00;99475.84;5071397;28;20280;-73
2021/09/26 09:31:07;;;;;;;18.38;15.20;;;;;;;18.93;100.00;99482.72;5071542;28;20493;-74
2021/09/26 09:33:39;;;;;;;15.48;13.98;;;;;;;19.13;100.00;99487.16;5071642;28;20195;-74
2021/09/26 09:36:19;;;;;;;15.95;14.43;;;;;;;19.23;100.00;99497.19;5071120;28;20319;-75
2021/09/26 09:38:47;;;;;;;16.77;15.00;;;;;;;19.16;100.00;99496.91;5071483;28;20218;-75
2021/09/26 09:41:31;;;;;;;15.45;13.90;;;;;;;19.16;100.00;99505.09;5071584;28;20293;-73
2021/09/26 09:43:57;;;;;;;18.27;14.55;;;;;;;19.25;100.00;99500.63;5071825;28;20184;-73
2021/09/26 09:46:30;;;;;;;15.70;14.27;;;;;;;19.31;100.00;99497.28;5071446;28;20185;-75
2021/09/26 09:49:09;;;;;;;14.03;12.73;;;;;;;19.11;100.00;99493.75;5071721;28;20200;-75
2021/09/26 09:51:38;;;;;;;15.85;14.25;;;;;;;19.04;100.00;99495.34;5071794;28;20780;-74
2021/09/26 09:54:04;;;;;;;14.30;12.88;;;;;;;19.09;100.00;99504.81;5071393;28;20188;-75
2021/09/26 09:56:41;;;;;;;15.30;12.63;;;;;;;19.08;100.00;99500.34;5070567;28;20212;-74
2021/09/26 09:59:07;;;;;;;13.67;12.23;;;;;;;19.22;100.00;99507.25;5071446;28;20529;-73
2021/09/26 10:01:37;;;;;;;15.13;13.43;;;;;;;19.20;100.00;99502.91;5071484;28;20438;-73
2021/09/26 10:04:05;;;;;;;16.10;12.83;;;;;;;19.19;100.00;99499.34;5068986;28;20193;-75
2021/09/26 10:06:40;;;;;;;15.83;13.00;;;;;;;19.23;100.00;99497.19;5070695;28;20555;-74
2021/09/26 10:09:25;;;;;;;15.33;13.73;;;;;;;19.14;100.00;99493.47;5070387;28;20474;-75
2021/09/26 10:11:54;;;;;;;16.13;13.83;;;;;;;19.21;100.00;99480.94;5070718;28;20512;-74
2021/09/26 10:14:23;;;;;;;14.68;13.23;;;;;;;19.29;100.00;99483.81;5069962;28;20437;-74
2021/09/26 10:16:50;;;;;;;16.27;12.65;;;;;;;19.35;100.00;99485.91;5070968;28;20219;-74
2021/09/26 10:19:21;;;;;;;13.00;11.63;;;;;;;19.57;100.00;99486.59;5070864;28;20556;-75
2021/09/26 10:21:50;;;;;;;14.97;13.27;;;;;;;19.61;100.00;99493.47;5065430;28;20435;-74
2021/09/26 10:24:20;;;;;;;18.70;14.57;;;;;;;19.75;100.00;99493.00;5070513;28;20522;-75
2021/09/26 10:26:47;;;;;;;14.90;13.60;;;;;;;20.09;100.00;99488.81;5071132;28;20431;-75
2021/09/26 10:29:17;;;;;;;16.83;15.20;;;;;;;20.28;100.00;99490.56;5071210;28;20446;-75
2021/09/26 10:31:44;;;;;;;18.03;12.80;;;;;;;20.67;97.53;99493.03;5071299;28;20996;-74
2021/09/26 10:34:11;;;;;;;16.40;12.90;;;;;;;20.86;94.56;99492.03;5071225;28;20838;-73
2021/09/26 10:36:39;;;;;;;14.73;13.17;;;;;;;20.73;94.32;99493.25;5070435;28;20609;-73
2021/09/26 10:39:08;;;;;;;14.57;13.13;;;;;;;20.46;96.60;99488.69;5071251;28;20459;-75
2021/09/26 10:41:35;;;;;;;12.80;11.67;;;;;;;20.52;96.27;99490.81;5070813;28;20439;-75
2021/09/26 10:44:24;;;;;;;12.90;11.70;;;;;;;20.13;99.02;99488.34;5070941;28;20466;-74
2021/09/26 10:47:07;;;;;;;14.63;13.13;;;;;;;20.01;100.00;99486.81;5070411;28;20453;-74
2021/09/26 10:49:37;;;;;;;15.30;13.70;;;;;;;19.89;100.00;99479.84;5070521;28;20862;-75
2021/09/26 10:52:25;;;;;;;14.50;13.20;;;;;;;19.88;100.00;99480.88;5069664;28;20443;-75
2021/09/26 10:54:54;;;;;;;14.60;12.40;;;;;;;19.88;100.00;99483.63;5070023;28;20524;-75
2021/09/26 10:57:27;;;;;;;14.03;12.60;;;;;;;19.97;100.00;99483.56;5070271;28;20483;-74
2021/09/26 10:59:57;;;;;;;14.17;12.67;;;;;;;20.26;100.00;99477.06;5070366;28;20431;-74
2021/09/26 11:02:45;;;;;;;15.80;14.20;;;;;;;20.24;100.00;99472.72;5070619;28;20756;-74
2021/09/26 11:05:30;;;;;;;17.90;13.87;;;;;;;20.12;100.00;99467.47;5055263;28;20964;-75
2021/09/26 11:07:57;;;;;;;16.87;14.93;;;;;;;19.93;100.00;99465.75;5070067;28;20513;-74
2021/09/26 11:10:40;;;;;;;14.80;13.20;;;;;;;19.67;100.00;99468.31;5070333;28;20435;-75
2021/09/26 11:13:19;;;;;;;16.60;14.20;;;;;;;19.76;100.00;99466.53;5070262;28;20529;-74
2021/09/26 11:16:09;;;;;;;18.27;13.80;;;;;;;19.93;100.00;99464.88;5070089;28;20434;-74
2021/09/26 11:18:59;;;;;;;14.27;12.97;;;;;;;20.44;99.32;99462.53;5069843;28;20880;-74